sensor_id;sensor_type;location;lat;lon;timestamp;pressure;altitude;pressure_sealevel;temperature;humidity
58385;BME280;44185;47.844;8.966;2023-04-22T00:00:20;95580.81;;;7.10;100.00
58385;BME280;44185;47.844;8.966;2023-04-22T00:02:46;95574.47;;;7.12;100.00
58385;BME280;44185;47.844;8.966;2023-04-22T00:05:12;95568.50;;;7.10;100.00
58385;BME280;44185;47.844;8.966;2023-04-22T00:07:39;95566.50;;;7.03;100.00
58385;BME280;44185;47.844;8.966;2023-04-22T00:10:05;95567.19;;;7.05;100.00
58385;BME280;44185;47.844;8.966;2023-04-22T00:12:30;95573.69;;;7.00;100.00
58385;BME280;44185;47.844;8.966;2023-04-22T00:14:56;95573.16;;;7.07;100.00
58385;BME280;44185;47.844;8.966;2023-04-22T00:17:21;95567.06;;;7.06;100.00
58385;BME280;44185;47.844;8.966;2023-04-22T00:19:47;95569.34;;;7.11;100.00
58385;BME280;44185;47.844;8.966;2023-04-22T00:22:13;95571.50;;;7.06;100.00
58385;BME280;44185;47.844;8.966;2023-04-22T00:24:39;95573.72;;;6.89;100.00
58385;BME280;44185;47.844;8.966;2023-04-22T00:27:04;95582.78;;;6.96;100.00
58385;BME280;44185;47.844;8.966;2023-04-22T00:29:30;95579.31;;;6.96;100.00
58385;BME280;44185;47.844;8.966;2023-04-22T00:31:55;95578.59;;;6.94;100.00
58385;BME280;44185;47.844;8.966;2023-04-22T00:34:20;95575.03;;;6.95;100.00
58385;BME280;44185;47.844;8.966;2023-04-22T00:36:46;95572.19;;;6.86;100.00
58385;BME280;44185;47.844;8.966;2023-04-22T00:39:13;95566.22;;;6.84;100.00
58385;BME280;44185;47.844;8.966;2023-04-22T00:41:39;95573.91;;;6.76;100.00
58385;BME280;44185;47.844;8.966;2023-04-22T00:44:05;95572.66;;;6.80;100.00
58385;BME280;44185;47.844;8.966;2023-04-22T00:46:33;95554.72;;;6.85;100.00
58385;BME280;44185;47.844;8.966;2023-04-22T00:48:59;95559.91;;;6.75;100.00
58385;BME280;44185;47.844;8.966;2023-04-22T00:51:24;95562.16;;;6.80;100.00
58385;BME280;44185;47.844;8.966;2023-04-22T00:53:49;95566.25;;;6.73;100.00
58385;BME280;44185;47.844;8.966;2023-04-22T00:56:16;95565.50;;;6.49;100.00
58385;BME280;44185;47.844;8.966;2023-04-22T00:58:42;95563.31;;;6.54;100.00
58385;BME280;44185;47.844;8.966;2023-04-22T01:01:07;95563.56;;;6.51;100.00
58385;BME280;44185;47.844;8.966;2023-04-22T01:03:35;95558.66;;;6.58;100.00
58385;BME280;44185;47.844;8.966;2023-04-22T01:06:02;95554.94;;;6.61;100.00
58385;BME280;44185;47.844;8.966;2023-04-22T01:08:28;95564.03;;;6.45;100.00
58385;BME280;44185;47.844;8.966;2023-04-22T01:10:54;95571.59;;;6.50;100.00
58385;BME280;44185;47.844;8.966;2023-04-22T01:13:21;95581.59;;;6.56;100.00
58385;BME280;44185;47.844;8.966;2023-04-22T01:15:46;95583.44;;;6.44;100.00
58385;BME280;44185;47.844;8.966;2023-04-22T01:18:12;95579.94;;;6.43;100.00
58385;BME280;44185;47.844;8.966;2023-04-22T01:20:38;95572.69;;;6.36;100.00
58385;BME280;44185;47.844;8.966;2023-04-22T01:23:11;95583.56;;;6.31;100.00
58385;BME280;44185;47.844;8.966;2023-04-22T01:25:38;95579.25;;;6.30;100.00
58385;BME280;44185;47.844;8.966;2023-04-22T01:28:04;95580.34;;;6.27;100.00
58385;BME280;44185;47.844;8.966;2023-04-22T01:30:30;95579.25;;;6.30;100.00
58385;BME280;44185;47.844;8.966;2023-04-22T01:32:56;95574.97;;;6.29;100.00
58385;BME280;44185;47.844;8.966;2023-04-22T01:35:21;95578.69;;;6.15;100.00
58385;BME280;44185;47.844;8.966;2023-04-22T01:37:47;95573.78;;;6.21;100.00
58385;BME280;44185;47.844;8.966;2023-04-22T01:40:14;95574.50;;;6.23;100.00
58385;BME280;44185;47.844;8.966;2023-04-22T01:42:40;95562.44;;;6.21;100.00
58385;BME280;44185;47.844;8.966;2023-04-22T01:45:06;95574.50;;;6.23;100.00
58385;BME280;44185;47.844;8.966;2023-04-22T01:47:32;95571.88;;;6.23;100.00
58385;BME280;44185;47.844;8.966;2023-04-22T01:49:57;95575.59;;;6.09;100.00
58385;BME280;44185;47.844;8.966;2023-04-22T01:52:25;95570.06;;;6.01;100.00
58385;BME280;44185;47.844;8.966;2023-04-22T01:54:51;95561.25;;;6.02;100.00
58385;BME280;44185;47.844;8.966;2023-04-22T01:57:17;95571.63;;;5.92;100.00
58385;BME280;44185;47.844;8.966;2023-04-22T01:59:43;95560.16;;;5.82;100.00
58385;BME280;44185;47.844;8.966;2023-04-22T02:02:08;95567.22;;;5.70;100.00
58385;BME280;44185;47.844;8.966;2023-04-22T02:04:34;95566.75;;;5.76;100.00
58385;BME280;44185;47.844;8.966;2023-04-22T02:06:59;95569.84;;;5.81;100.00
58385;BME280;44185;47.844;8.966;2023-04-22T02:09:25;95557.78;;;5.78;100.00
58385;BME280;44185;47.844;8.966;2023-04-22T02:11:50;95557.66;;;5.80;100.00
58385;BME280;44185;47.844;8.966;2023-04-22T02:14:17;95561.13;;;5.81;100.00
58385;BME280;44185;47.844;8.966;2023-04-22T02:16:42;95559.91;;;5.73;100.00
58385;BME280;44185;47.844;8.966;2023-04-22T02:19:08;95560.88;;;5.72;100.00
58385;BME280;44185;47.844;8.966;2023-04-22T02:21:34;95554.78;;;5.72;100.00
58385;BME280;44185;47.844;8.966;2023-04-22T02:23:59;95558.59;;;5.79;100.00
58385;BME280;44185;47.844;8.966;2023-04-22T02:26:25;95554.66;;;5.73;100.00
58385;BME280;44185;47.844;8.966;2023-04-22T02:28:50;95556.47;;;5.73;100.00
58385;BME280;44185;47.844;8.966;2023-04-22T02:31:17;95565.53;;;5.80;100.00
58385;BME280;44185;47.844;8.966;2023-04-22T02:33:43;95565.78;;;5.77;100.00
58385;BME280;44185;47.844;8.966;2023-04-22T02:36:08;95561.72;;;5.73;100.00
58385;BME280;44185;47.844;8.966;2023-04-22T02:38:34;95566.13;;;5.61;100.00
58385;BME280;44185;47.844;8.966;2023-04-22T02:40:59;95563.50;;;5.61;100.00
58385;BME280;44185;47.844;8.966;2023-04-22T02:43:25;95561.22;;;5.56;100.00
58385;BME280;44185;47.844;8.966;2023-04-22T02:45:50;95571.38;;;5.61;100.00
58385;BME280;44185;47.844;8.966;2023-04-22T02:48:17;95568.28;;;5.44;100.00
58385;BME280;44185;47.844;8.966;2023-04-22T02:50:42;95571.47;;;5.36;100.00
58385;BME280;44185;47.844;8.966;2023-04-22T02:53:08;95574.56;;;5.30;100.00
58385;BME280;44185;47.844;8.966;2023-04-22T02:55:34;95571.81;;;5.31;100.00
58385;BME280;44185;47.844;8.966;2023-04-22T02:57:59;95567.03;;;5.25;100.00
58385;BME280;44185;47.844;8.966;2023-04-22T03:00:25;95570.25;;;5.29;100.00
58385;BME280;44185;47.844;8.966;2023-04-22T03:02:50;95559.63;;;5.19;100.00
58385;BME280;44185;47.844;8.966;2023-04-22T03:05:17;95567.13;;;5.12;100.00
58385;BME280;44185;47.844;8.966;2023-04-22T03:07:43;95556.25;;;5.05;100.00
58385;BME280;44185;47.844;8.966;2023-04-22T03:10:09;95555.41;;;5.05;100.00
58385;BME280;44185;47.844;8.966;2023-04-22T03:12:34;95552.28;;;4.88;100.00
58385;BME280;44185;47.844;8.966;2023-04-22T03:14:59;95557.88;;;4.95;100.00
58385;BME280;44185;47.844;8.966;2023-04-22T03:17:25;95556.38;;;5.04;100.00
58385;BME280;44185;47.844;8.966;2023-04-22T03:19:50;95551.84;;;5.06;100.00
58385;BME280;44185;47.844;8.966;2023-04-22T03:22:17;95553.53;;;5.07;100.00
58385;BME280;44185;47.844;8.966;2023-04-22T03:24:43;95555.41;;;5.05;100.00
58385;BME280;44185;47.844;8.966;2023-04-22T03:27:09;95558.59;;;4.97;100.00
58385;BME280;44185;47.844;8.966;2023-04-22T03:29:34;95566.94;;;5.02;100.00
58385;BME280;44185;47.844;8.966;2023-04-22T03:32:00;95570.88;;;4.96;100.00
58385;BME280;44185;47.844;8.966;2023-04-22T03:34:25;95570.72;;;4.86;100.00
58385;BME280;44185;47.844;8.966;2023-04-22T03:36:51;95577.59;;;4.76;100.00
58385;BME280;44185;47.844;8.966;2023-04-22T03:39:17;95572.19;;;4.66;100.00
58385;BME280;44185;47.844;8.966;2023-04-22T03:41:43;95577.28;;;4.56;100.00
58385;BME280;44185;47.844;8.966;2023-04-22T03:44:08;95578.97;;;4.44;100.00
58385;BME280;44185;47.844;8.966;2023-04-22T03:46:34;95575.22;;;4.48;100.00
58385;BME280;44185;47.844;8.966;2023-04-22T03:48:59;95579.44;;;4.62;100.00
58385;BME280;44185;47.844;8.966;2023-04-22T03:51:25;95588.25;;;4.61;100.00
58385;BME280;44185;47.844;8.966;2023-04-22T03:53:50;95587.91;;;4.66;100.00
58385;BME280;44185;47.844;8.966;2023-04-22T03:56:17;95592.31;;;4.65;100.00
58385;BME280;44185;47.844;8.966;2023-04-22T03:58:42;95588.81;;;4.53;100.00
58385;BME280;44185;47.844;8.966;2023-04-22T04:01:08;95597.28;;;4.57;100.00
58385;BME280;44185;47.844;8.966;2023-04-22T04:03:34;95601.97;;;4.65;100.00
58385;BME280;44185;47.844;8.966;2023-04-22T04:05:59;95601.16;;;4.64;100.00
58385;BME280;44185;47.844;8.966;2023-04-22T04:08:25;95603.84;;;4.63;100.00
58385;BME280;44185;47.844;8.966;2023-04-22T04:10:50;95604.28;;;4.56;100.00
58385;BME280;44185;47.844;8.966;2023-04-22T04:13:17;95596.22;;;4.60;100.00
58385;BME280;44185;47.844;8.966;2023-04-22T04:15:42;95602.28;;;4.60;100.00
58385;BME280;44185;47.844;8.966;2023-04-22T04:18:08;95604.81;;;4.62;100.00
58385;BME280;44185;47.844;8.966;2023-04-22T04:20:34;95605.84;;;4.59;100.00
58385;BME280;44185;47.844;8.966;2023-04-22T04:22:59;95607.66;;;4.59;100.00
58385;BME280;44185;47.844;8.966;2023-04-22T04:25:25;95604.34;;;4.68;100.00
58385;BME280;44185;47.844;8.966;2023-04-22T04:27:51;95607.69;;;4.70;100.00
58385;BME280;44185;47.844;8.966;2023-04-22T04:30:18;95607.53;;;4.60;100.00
58385;BME280;44185;47.844;8.966;2023-04-22T04:32:43;95606.81;;;4.58;100.00
58385;BME280;44185;47.844;8.966;2023-04-22T04:35:09;95605.59;;;4.51;100.00
58385;BME280;44185;47.844;8.966;2023-04-22T04:37:34;95609.88;;;4.52;100.00
58385;BME280;44185;47.844;8.966;2023-04-22T04:39:59;95603.13;;;4.61;100.00
58385;BME280;44185;47.844;8.966;2023-04-22T04:42:25;95605.41;;;4.65;100.00
58385;BME280;44185;47.844;8.966;2023-04-22T04:44:50;95607.94;;;4.67;100.00
58385;BME280;44185;47.844;8.966;2023-04-22T04:47:17;95609.00;;;4.64;100.00
58385;BME280;44185;47.844;8.966;2023-04-22T04:49:42;95610.22;;;4.72;100.00
58385;BME280;44185;47.844;8.966;2023-04-22T04:52:08;95609.16;;;4.74;100.00
58385;BME280;44185;47.844;8.966;2023-04-22T04:54:34;95611.88;;;4.73;100.00
58385;BME280;44185;47.844;8.966;2023-04-22T04:56:59;95605.03;;;4.83;100.00
58385;BME280;44185;47.844;8.966;2023-04-22T04:59:25;95609.25;;;4.97;100.00
58385;BME280;44185;47.844;8.966;2023-04-22T05:01:50;95602.84;;;5.02;100.00
58385;BME280;44185;47.844;8.966;2023-04-22T05:04:17;95612.38;;;5.03;100.00
58385;BME280;44185;47.844;8.966;2023-04-22T05:06:42;95605.91;;;4.95;100.00
58385;BME280;44185;47.844;8.966;2023-04-22T05:09:08;95600.69;;;4.95;100.00
58385;BME280;44185;47.844;8.966;2023-04-22T05:11:34;95604.16;;;5.07;100.00
58385;BME280;44185;47.844;8.966;2023-04-22T05:14:00;95606.00;;;5.18;100.00
58385;BME280;44185;47.844;8.966;2023-04-22T05:16:25;95606.63;;;5.22;100.00
58385;BME280;44185;47.844;8.966;2023-04-22T05:18:51;95603.44;;;5.05;100.00
58385;BME280;44185;47.844;8.966;2023-04-22T05:21:17;95610.88;;;5.11;100.00
58385;BME280;44185;47.844;8.966;2023-04-22T05:23:43;95612.88;;;5.08;100.00
58385;BME280;44185;47.844;8.966;2023-04-22T05:26:08;95616.38;;;5.20;100.00
58385;BME280;44185;47.844;8.966;2023-04-22T05:28:34;95618.31;;;5.29;100.00
58385;BME280;44185;47.844;8.966;2023-04-22T05:30:59;95622.06;;;5.50;100.00
58385;BME280;44185;47.844;8.966;2023-04-22T05:33:25;95616.84;;;5.61;100.00
58385;BME280;44185;47.844;8.966;2023-04-22T05:35:50;95621.84;;;5.64;100.00
58385;BME280;44185;47.844;8.966;2023-04-22T05:38:17;95629.38;;;5.69;100.00
58385;BME280;44185;47.844;8.966;2023-04-22T05:40:42;95632.97;;;5.79;100.00
58385;BME280;44185;47.844;8.966;2023-04-22T05:43:08;95629.97;;;5.84;100.00
58385;BME280;44185;47.844;8.966;2023-04-22T05:45:34;95627.75;;;5.91;100.00
58385;BME280;44185;47.844;8.966;2023-04-22T05:47:59;95625.94;;;6.03;100.00
58385;BME280;44185;47.844;8.966;2023-04-22T05:50:25;95624.16;;;6.04;100.00
58385;BME280;44185;47.844;8.966;2023-04-22T05:52:50;95617.50;;;6.22;100.00
58385;BME280;44185;47.844;8.966;2023-04-22T05:55:17;95620.34;;;6.31;100.00
58385;BME280;44185;47.844;8.966;2023-04-22T05:57:43;95621.06;;;6.44;100.00
58385;BME280;44185;47.844;8.966;2023-04-22T06:00:09;95623.41;;;6.59;100.00
58385;BME280;44185;47.844;8.966;2023-04-22T06:02:35;95620.75;;;6.71;100.00
58385;BME280;44185;47.844;8.966;2023-04-22T06:05:00;95620.63;;;6.72;100.00
58385;BME280;44185;47.844;8.966;2023-04-22T06:07:26;95613.44;;;6.74;100.00
58385;BME280;44185;47.844;8.966;2023-04-22T06:09:51;95616.69;;;6.78;100.00
58385;BME280;44185;47.844;8.966;2023-04-22T06:12:19;95617.13;;;6.83;100.00
58385;BME280;44185;47.844;8.966;2023-04-22T06:14:44;95612.72;;;6.84;100.00
58385;BME280;44185;47.844;8.966;2023-04-22T06:17:09;95608.03;;;6.87;100.00
58385;BME280;44185;47.844;8.966;2023-04-22T06:19:35;95603.84;;;6.85;100.00
58385;BME280;44185;47.844;8.966;2023-04-22T06:22:01;95600.66;;;6.81;100.00
58385;BME280;44185;47.844;8.966;2023-04-22T06:24:26;95591.78;;;6.82;100.00
58385;BME280;44185;47.844;8.966;2023-04-22T06:26:52;95589.50;;;6.89;100.00
58385;BME280;44185;47.844;8.966;2023-04-22T06:29:19;95591.97;;;7.02;100.00
58385;BME280;44185;47.844;8.966;2023-04-22T06:31:44;95606.53;;;7.06;100.00
58385;BME280;44185;47.844;8.966;2023-04-22T06:34:09;95610.97;;;7.06;100.00
58385;BME280;44185;47.844;8.966;2023-04-22T06:36:35;95622.28;;;7.18;100.00
58385;BME280;44185;47.844;8.966;2023-04-22T06:39:00;95631.22;;;7.27;100.00
58385;BME280;44185;47.844;8.966;2023-04-22T06:41:26;95630.66;;;7.44;100.00
58385;BME280;44185;47.844;8.966;2023-04-22T06:43:51;95629.88;;;7.54;100.00
58385;BME280;44185;47.844;8.966;2023-04-22T06:46:18;95637.84;;;7.64;100.00
58385;BME280;44185;47.844;8.966;2023-04-22T06:48:44;95647.41;;;7.65;100.00
58385;BME280;44185;47.844;8.966;2023-04-22T06:51:10;95647.47;;;7.75;100.00
58385;BME280;44185;47.844;8.966;2023-04-22T06:53:36;95643.91;;;7.86;100.00
58385;BME280;44185;47.844;8.966;2023-04-22T06:56:02;95646.47;;;7.97;100.00
58385;BME280;44185;47.844;8.966;2023-04-22T06:58:28;95661.69;;;8.15;100.00
58385;BME280;44185;47.844;8.966;2023-04-22T07:00:53;95656.47;;;8.25;100.00
58385;BME280;44185;47.844;8.966;2023-04-22T07:03:20;95659.84;;;8.37;100.00
58385;BME280;44185;47.844;8.966;2023-04-22T07:05:46;95660.88;;;8.56;100.00
58385;BME280;44185;47.844;8.966;2023-04-22T07:08:11;95662.25;;;8.92;100.00
58385;BME280;44185;47.844;8.966;2023-04-22T07:10:37;95670.72;;;9.05;100.00
58385;BME280;44185;47.844;8.966;2023-04-22T07:13:02;95668.53;;;9.30;100.00
58385;BME280;44185;47.844;8.966;2023-04-22T07:15:28;95674.75;;;9.69;100.00
58385;BME280;44185;47.844;8.966;2023-04-22T07:17:54;95680.00;;;9.99;100.00
58385;BME280;44185;47.844;8.966;2023-04-22T07:20:21;95674.28;;;10.14;100.00
58385;BME280;44185;47.844;8.966;2023-04-22T07:22:46;95678.88;;;10.50;100.00
58385;BME280;44185;47.844;8.966;2023-04-22T07:25:11;95687.78;;;10.59;100.00
58385;BME280;44185;47.844;8.966;2023-04-22T07:27:37;95677.19;;;10.87;100.00
58385;BME280;44185;47.844;8.966;2023-04-22T07:30:04;95676.41;;;11.23;100.00
58385;BME280;44185;47.844;8.966;2023-04-22T07:32:30;95668.22;;;11.53;100.00
58385;BME280;44185;47.844;8.966;2023-04-22T07:34:55;95664.97;;;11.59;100.00
58385;BME280;44185;47.844;8.966;2023-04-22T07:37:22;95663.56;;;11.92;100.00
58385;BME280;44185;47.844;8.966;2023-04-22T07:39:48;95666.56;;;12.15;100.00
58385;BME280;44185;47.844;8.966;2023-04-22T07:42:13;95656.16;;;12.57;100.00
58385;BME280;44185;47.844;8.966;2023-04-22T07:44:39;95650.75;;;12.75;100.00
58385;BME280;44185;47.844;8.966;2023-04-22T07:47:04;95650.09;;;12.38;100.00
58385;BME280;44185;47.844;8.966;2023-04-22T07:49:30;95652.31;;;12.51;100.00
58385;BME280;44185;47.844;8.966;2023-04-22T07:51:55;95658.78;;;13.00;100.00
58385;BME280;44185;47.844;8.966;2023-04-22T07:54:22;95657.97;;;13.00;100.00
58385;BME280;44185;47.844;8.966;2023-04-22T07:56:47;95659.34;;;13.21;100.00
58385;BME280;44185;47.844;8.966;2023-04-22T07:59:13;95664.34;;;13.41;100.00
58385;BME280;44185;47.844;8.966;2023-04-22T08:01:38;95667.81;;;13.24;97.71
58385;BME280;44185;47.844;8.966;2023-04-22T08:04:04;95673.63;;;13.28;98.67
58385;BME280;44185;47.844;8.966;2023-04-22T08:06:29;95662.22;;;13.53;98.02
58385;BME280;44185;47.844;8.966;2023-04-22T08:08:55;95656.53;;;13.39;97.39
58385;BME280;44185;47.844;8.966;2023-04-22T08:11:21;95652.75;;;13.67;97.14
58385;BME280;44185;47.844;8.966;2023-04-22T08:13:47;95651.09;;;13.57;95.80
58385;BME280;44185;47.844;8.966;2023-04-22T08:16:12;95662.22;;;13.86;96.79
58385;BME280;44185;47.844;8.966;2023-04-22T08:18:38;95664.03;;;13.94;93.41
58385;BME280;44185;47.844;8.966;2023-04-22T08:21:04;95659.91;;;13.58;94.97
58385;BME280;44185;47.844;8.966;2023-04-22T08:23:29;95656.41;;;13.57;96.25
58385;BME280;44185;47.844;8.966;2023-04-22T08:25:55;95653.41;;;13.77;97.86
58385;BME280;44185;47.844;8.966;2023-04-22T08:28:22;95646.91;;;13.97;92.92
58385;BME280;44185;47.844;8.966;2023-04-22T08:30:47;95641.59;;;14.05;91.00
58385;BME280;44185;47.844;8.966;2023-04-22T08:33:13;95643.03;;;14.33;94.22
58385;BME280;44185;47.844;8.966;2023-04-22T08:35:39;95655.44;;;14.49;91.95
58385;BME280;44185;47.844;8.966;2023-04-22T08:38:04;95649.22;;;14.25;87.74
58385;BME280;44185;47.844;8.966;2023-04-22T08:40:30;95643.56;;;14.20;89.86
58385;BME280;44185;47.844;8.966;2023-04-22T08:42:56;95653.91;;;14.06;88.42
58385;BME280;44185;47.844;8.966;2023-04-22T08:45:23;95656.19;;;14.18;90.15
58385;BME280;44185;47.844;8.966;2023-04-22T08:47:49;95660.81;;;14.32;91.81
58385;BME280;44185;47.844;8.966;2023-04-22T08:50:15;95658.88;;;14.09;89.59
58385;BME280;44185;47.844;8.966;2023-04-22T08:52:41;95657.41;;;13.90;91.68
58385;BME280;44185;47.844;8.966;2023-04-22T08:55:07;95655.88;;;14.04;91.92
58385;BME280;44185;47.844;8.966;2023-04-22T08:57:35;95651.72;;;14.01;90.96
58385;BME280;44185;47.844;8.966;2023-04-22T09:00:01;95654.22;;;14.11;88.32
58385;BME280;44185;47.844;8.966;2023-04-22T09:02:31;95646.69;;;14.32;89.05
58385;BME280;44185;47.844;8.966;2023-04-22T09:04:57;95634.97;;;14.50;89.93
58385;BME280;44185;47.844;8.966;2023-04-22T09:07:24;95642.94;;;14.58;85.72
58385;BME280;44185;47.844;8.966;2023-04-22T09:09:51;95633.16;;;14.50;81.33
58385;BME280;44185;47.844;8.966;2023-04-22T09:12:17;95634.56;;;14.70;80.68
58385;BME280;44185;47.844;8.966;2023-04-22T09:14:43;95633.19;;;14.82;79.27
58385;BME280;44185;47.844;8.966;2023-04-22T09:17:08;95626.66;;;14.93;75.87
58385;BME280;44185;47.844;8.966;2023-04-22T09:19:35;95625.84;;;14.84;74.52
58385;BME280;44185;47.844;8.966;2023-04-22T09:22:01;95629.16;;;15.18;77.63
58385;BME280;44185;47.844;8.966;2023-04-22T09:24:26;95633.16;;;15.22;78.03
58385;BME280;44185;47.844;8.966;2023-04-22T09:26:54;95636.13;;;15.28;71.14
58385;BME280;44185;47.844;8.966;2023-04-22T09:29:19;95632.44;;;15.52;72.01
58385;BME280;44185;47.844;8.966;2023-04-22T09:31:47;95626.88;;;15.62;68.87
58385;BME280;44185;47.844;8.966;2023-04-22T09:34:13;95627.28;;;15.51;71.11
58385;BME280;44185;47.844;8.966;2023-04-22T09:36:41;95623.72;;;15.59;72.45
58385;BME280;44185;47.844;8.966;2023-04-22T09:39:07;95624.25;;;15.54;68.40
58385;BME280;44185;47.844;8.966;2023-04-22T09:41:34;95626.44;;;15.74;68.67
58385;BME280;44185;47.844;8.966;2023-04-22T09:44:02;95623.81;;;15.89;67.03
58385;BME280;44185;47.844;8.966;2023-04-22T09:46:29;95623.41;;;15.77;66.50
58385;BME280;44185;47.844;8.966;2023-04-22T09:48:55;95619.81;;;16.08;67.92
58385;BME280;44185;47.844;8.966;2023-04-22T09:51:21;95616.50;;;16.37;67.40
58385;BME280;44185;47.844;8.966;2023-04-22T09:53:58;95625.06;;;16.47;67.09
58385;BME280;44185;47.844;8.966;2023-04-22T09:56:39;95617.41;;;16.59;66.04
58385;BME280;44185;47.844;8.966;2023-04-22T09:59:05;95619.34;;;16.50;64.95
58385;BME280;44185;47.844;8.966;2023-04-22T10:01:34;95612.50;;;16.78;64.21
58385;BME280;44185;47.844;8.966;2023-04-22T10:04:00;95615.97;;;16.94;66.19
58385;BME280;44185;47.844;8.966;2023-04-22T10:06:25;95619.94;;;16.83;65.11
58385;BME280;44185;47.844;8.966;2023-04-22T10:08:51;95611.66;;;16.93;62.33
58385;BME280;44185;47.844;8.966;2023-04-22T10:11:18;95608.91;;;16.71;63.12
58385;BME280;44185;47.844;8.966;2023-04-22T10:13:43;95612.47;;;16.93;57.66
58385;BME280;44185;47.844;8.966;2023-04-22T10:16:09;95610.50;;;17.02;59.13
58385;BME280;44185;47.844;8.966;2023-04-22T10:18:36;95607.91;;;17.09;58.89
58385;BME280;44185;47.844;8.966;2023-04-22T10:21:04;95609.56;;;17.10;58.11
58385;BME280;44185;47.844;8.966;2023-04-22T10:23:31;95601.25;;;17.20;58.75
58385;BME280;44185;47.844;8.966;2023-04-22T10:25:57;95604.13;;;17.18;58.59
58385;BME280;44185;47.844;8.966;2023-04-22T10:28:27;95597.06;;;17.32;58.05
58385;BME280;44185;47.844;8.966;2023-04-22T10:30:53;95597.88;;;17.55;59.42
58385;BME280;44185;47.844;8.966;2023-04-22T10:33:37;95602.38;;;17.54;55.40
58385;BME280;44185;47.844;8.966;2023-04-22T10:36:12;95603.56;;;17.45;56.25
58385;BME280;44185;47.844;8.966;2023-04-22T10:38:41;95595.75;;;17.72;59.04
58385;BME280;44185;47.844;8.966;2023-04-22T10:41:12;95599.91;;;18.04;59.33
58385;BME280;44185;47.844;8.966;2023-04-22T10:43:44;95605.63;;;17.72;55.58
58385;BME280;44185;47.844;8.966;2023-04-22T10:49:17;95588.88;;;17.92;56.04
58385;BME280;44185;47.844;8.966;2023-04-22T10:51:45;95594.16;;;18.07;56.46
58385;BME280;44185;47.844;8.966;2023-04-22T10:57:20;95583.00;;;18.03;52.71
58385;BME280;44185;47.844;8.966;2023-04-22T10:59:48;95583.22;;;18.01;54.25
58385;BME280;44185;47.844;8.966;2023-04-22T11:02:14;95587.94;;;18.28;54.32
58385;BME280;44185;47.844;8.966;2023-04-22T11:04:40;95586.34;;;18.41;53.04
58385;BME280;44185;47.844;8.966;2023-04-22T11:07:13;95584.69;;;18.11;50.98
58385;BME280;44185;47.844;8.966;2023-04-22T11:09:39;95594.16;;;18.07;51.21
58385;BME280;44185;47.844;8.966;2023-04-22T11:12:42;95588.47;;;17.88;54.89
58385;BME280;44185;47.844;8.966;2023-04-22T11:15:10;95597.00;;;18.05;51.25
58385;BME280;44185;47.844;8.966;2023-04-22T11:17:37;95600.44;;;17.41;49.58
58385;BME280;44185;47.844;8.966;2023-04-22T11:20:04;95602.28;;;17.41;51.01
58385;BME280;44185;47.844;8.966;2023-04-22T11:22:33;95602.78;;;18.02;52.88
58385;BME280;44185;47.844;8.966;2023-04-22T11:25:00;95603.75;;;18.23;50.01
58385;BME280;44185;47.844;8.966;2023-04-22T11:27:26;95610.38;;;18.34;47.09
58385;BME280;44185;47.844;8.966;2023-04-22T11:29:59;95605.09;;;18.48;49.48
58385;BME280;44185;47.844;8.966;2023-04-22T11:32:26;95598.38;;;18.59;49.95
58385;BME280;44185;47.844;8.966;2023-04-22T11:34:51;95599.63;;;18.63;51.13
58385;BME280;44185;47.844;8.966;2023-04-22T11:37:17;95589.47;;;18.16;48.19
58385;BME280;44185;47.844;8.966;2023-04-22T11:39:43;95589.22;;;18.39;50.86
58385;BME280;44185;47.844;8.966;2023-04-22T11:42:11;95581.72;;;18.70;49.87
58385;BME280;44185;47.844;8.966;2023-04-22T11:44:37;95586.09;;;18.78;48.26
58385;BME280;44185;47.844;8.966;2023-04-22T11:47:03;95581.81;;;19.04;48.29
58385;BME280;44185;47.844;8.966;2023-04-22T11:49:29;95575.94;;;19.56;45.68
58385;BME280;44185;47.844;8.966;2023-04-22T11:51:55;95572.44;;;19.70;44.46
58385;BME280;44185;47.844;8.966;2023-04-22T11:54:31;95570.78;;;19.62;46.50
58385;BME280;44185;47.844;8.966;2023-04-22T11:56:57;95565.63;;;19.47;43.33
58385;BME280;44185;47.844;8.966;2023-04-22T11:59:24;95573.91;;;19.59;43.01
58385;BME280;44185;47.844;8.966;2023-04-22T12:01:50;95569.94;;;19.75;45.93
58385;BME280;44185;47.844;8.966;2023-04-22T12:04:16;95572.88;;;19.66;44.48
58385;BME280;44185;47.844;8.966;2023-04-22T12:06:45;95571.59;;;19.83;43.16
58385;BME280;44185;47.844;8.966;2023-04-22T12:09:10;95575.34;;;19.61;42.39
58385;BME280;44185;47.844;8.966;2023-04-22T12:11:37;95569.97;;;19.48;43.01
58385;BME280;44185;47.844;8.966;2023-04-22T12:14:04;95571.19;;;19.45;42.26
58385;BME280;44185;47.844;8.966;2023-04-22T12:16:38;95567.28;;;19.61;45.96
58385;BME280;44185;47.844;8.966;2023-04-22T12:19:04;95574.47;;;19.95;46.61
58385;BME280;44185;47.844;8.966;2023-04-22T12:21:29;95574.06;;;19.98;46.12
58385;BME280;44185;47.844;8.966;2023-04-22T12:23:57;95571.63;;;19.55;45.89
58385;BME280;44185;47.844;8.966;2023-04-22T12:26:24;95572.84;;;19.39;44.32
58385;BME280;44185;47.844;8.966;2023-04-22T12:28:50;95571.19;;;19.93;47.07
58385;BME280;44185;47.844;8.966;2023-04-22T12:31:16;95578.81;;;20.16;45.68
58385;BME280;44185;47.844;8.966;2023-04-22T12:33:42;95582.25;;;20.51;46.92
58385;BME280;44185;47.844;8.966;2023-04-22T12:36:09;95576.13;;;20.76;46.15
58385;BME280;44185;47.844;8.966;2023-04-22T12:38:35;95579.84;;;20.82;46.35
58385;BME280;44185;47.844;8.966;2023-04-22T12:41:03;95586.38;;;20.47;47.32
58385;BME280;44185;47.844;8.966;2023-04-22T12:43:28;95588.22;;;20.53;46.71
58385;BME280;44185;47.844;8.966;2023-04-22T12:45:54;95592.31;;;20.62;46.23
58385;BME280;44185;47.844;8.966;2023-04-22T12:48:19;95591.06;;;20.72;48.05
58385;BME280;44185;47.844;8.966;2023-04-22T12:50:45;95593.94;;;20.77;46.43
58385;BME280;44185;47.844;8.966;2023-04-22T12:53:10;95593.09;;;20.76;46.52
58385;BME280;44185;47.844;8.966;2023-04-22T12:55:36;95592.75;;;20.59;45.15
58385;BME280;44185;47.844;8.966;2023-04-22T12:58:03;95594.00;;;20.50;46.82
58385;BME280;44185;47.844;8.966;2023-04-22T13:00:28;95593.28;;;20.15;45.88